createdAt,value
2023-04-02T00:01:36.998Z,85.98
2023-04-02T00:04:30.206Z,85.76
2023-04-02T00:07:36.178Z,85.75
2023-04-02T00:10:41.528Z,85.79
2023-04-02T00:13:53.442Z,85.88
2023-04-02T00:16:43.878Z,86.19
2023-04-02T00:19:58.337Z,86.12
2023-04-02T00:22:53.912Z,86.17
2023-04-02T00:26:07.384Z,86.18
2023-04-02T00:29:19.068Z,86.35
2023-04-02T00:32:31.750Z,86.46
2023-04-02T00:35:33.465Z,86.66
2023-04-02T00:38:38.686Z,87.07
2023-04-02T00:41:39.080Z,87.05
2023-04-02T00:44:50.271Z,86.91
2023-04-02T00:47:41.129Z,86.83
2023-04-02T00:50:50.503Z,87.11
2023-04-02T00:53:52.083Z,87.20
2023-04-02T00:56:46.441Z,87.00
2023-04-02T00:59:56.226Z,86.79
2023-04-02T01:03:30.448Z,86.89
2023-04-02T01:06:34.371Z,86.80
2023-04-02T01:09:39.667Z,86.88
2023-04-02T01:12:38.208Z,86.96
2023-04-02T01:15:52.297Z,87.16
2023-04-02T01:19:07.639Z,87.26
2023-04-02T01:22:10.424Z,87.63
2023-04-02T01:25:25.161Z,87.60
2023-04-02T01:28:29.658Z,87.34
2023-04-02T01:31:23.011Z,87.20
2023-04-02T01:34:19.181Z,87.34
2023-04-02T01:37:36.852Z,87.39
2023-04-02T01:40:40.273Z,87.47
2023-04-02T01:43:48.598Z,87.50
2023-04-02T01:46:51.161Z,87.35
2023-04-02T01:49:50.677Z,87.35
2023-04-02T01:53:02.498Z,87.50
2023-04-02T01:56:13.268Z,87.59
2023-04-02T01:59:11.166Z,87.81
2023-04-02T02:02:04.171Z,87.96
2023-04-02T02:04:55.398Z,87.80
2023-04-02T02:08:07.278Z,87.86
2023-04-02T02:11:09.276Z,87.93
2023-04-02T02:14:04.044Z,88.07
2023-04-02T02:17:02.321Z,87.95
2023-04-02T02:20:06.983Z,87.93
2023-04-02T02:23:00.339Z,87.87
2023-04-02T02:26:13.222Z,87.96
2023-04-02T02:29:12.966Z,87.80
2023-04-02T02:32:24.965Z,87.90
2023-04-02T02:35:24.520Z,88.06
2023-04-02T02:38:32.005Z,88.20
2023-04-02T02:41:44.384Z,88.34
2023-04-02T02:44:56.144Z,88.27
2023-04-02T02:47:48.113Z,88.50
2023-04-02T02:50:44.508Z,88.44
2023-04-02T02:53:51.445Z,88.58
2023-04-02T02:56:56.280Z,88.60
2023-04-02T03:00:10.174Z,88.56
2023-04-02T03:03:07.721Z,88.69
2023-04-02T03:06:20.957Z,88.82
2023-04-02T03:09:38.247Z,88.79
2023-04-02T03:12:51.538Z,89.07
2023-04-02T03:16:03.973Z,89.14
2023-04-02T03:19:12.269Z,89.33
2023-04-02T03:22:19.239Z,89.50
2023-04-02T03:25:34.645Z,89.49
2023-04-02T03:28:32.544Z,89.61
2023-04-02T03:31:28.470Z,89.84
2023-04-02T03:34:35.315Z,89.64
2023-04-02T03:37:42.248Z,89.94
2023-04-02T03:40:57.234Z,90.10
2023-04-02T03:43:55.235Z,90.17
2023-04-02T03:47:00.690Z,90.30
2023-04-02T03:49:56.858Z,90.04
2023-04-02T03:53:06.938Z,89.94
2023-04-02T03:56:23.130Z,90.04
2023-04-02T03:59:28.447Z,89.87
2023-04-02T04:02:42.829Z,89.75
2023-04-02T04:05:55.385Z,89.68
2023-04-02T04:08:51.946Z,89.60
2023-04-02T04:11:58.456Z,89.73
2023-04-02T04:15:10.915Z,89.65
2023-04-02T04:18:30.018Z,89.81
2023-04-02T04:21:45.341Z,89.81
2023-04-02T04:24:57.436Z,89.95
2023-04-02T04:28:07.881Z,90.28
2023-04-02T04:31:18.186Z,90.23
2023-04-02T04:34:25.354Z,90.43
2023-04-02T04:37:33.795Z,90.67
2023-04-02T04:40:50.533Z,90.61
2023-04-02T04:44:07.107Z,90.62
2023-04-02T04:47:13.267Z,90.74
2023-04-02T04:50:28.683Z,90.91
2023-04-02T04:53:30.562Z,90.75
2023-04-02T04:56:35.180Z,90.50
2023-04-02T04:59:54.115Z,90.51
2023-04-02T05:03:03.708Z,90.55
2023-04-02T05:06:01.720Z,90.77
2023-04-02T05:09:16.176Z,90.96
2023-04-02T05:12:23.758Z,91.37
2023-04-02T05:15:30.764Z,91.45
2023-04-02T05:18:34.078Z,91.48
2023-04-02T05:21:35.648Z,91.61
2023-04-02T05:24:52.777Z,91.80
2023-04-02T05:28:06.819Z,92.03
2023-04-02T05:31:21.322Z,92.24
2023-04-02T05:34:27.265Z,92.26
2023-04-02T05:37:31.891Z,92.48
2023-04-02T05:40:45.533Z,92.51
2023-04-02T05:44:00.677Z,92.44
2023-04-02T05:47:05.255Z,92.13
2023-04-02T05:50:21.592Z,91.85
2023-04-02T05:53:18.200Z,91.67
2023-04-02T05:56:20.441Z,91.54
2023-04-02T05:59:25.156Z,91.44
2023-04-02T06:02:40.623Z,91.57
2023-04-02T06:05:44.714Z,91.92
2023-04-02T06:08:58.774Z,91.77
2023-04-02T06:12:19.699Z,91.87
2023-04-02T06:15:14.685Z,92.19
2023-04-02T06:18:28.713Z,92.42
2023-04-02T06:21:33.059Z,92.78
2023-04-02T06:24:46.047Z,92.92
2023-04-02T06:27:38.133Z,93.41
2023-04-02T06:30:34.967Z,93.26
2023-04-02T06:33:38.851Z,93.44
2023-04-02T06:36:43.028Z,93.28
2023-04-02T06:39:36.708Z,93.20
2023-04-02T06:42:32.912Z,93.30
2023-04-02T06:45:31.367Z,93.23
2023-04-02T06:48:45.973Z,92.58
2023-04-02T06:51:52.605Z,92.39
2023-04-02T06:55:07.077Z,92.38
2023-04-02T06:58:08.468Z,92.08
2023-04-02T07:01:07.225Z,91.86
2023-04-02T07:04:04.478Z,92.13
2023-04-02T07:07:10.839Z,91.91
2023-04-02T07:10:32.264Z,91.83
2023-04-02T07:13:42.597Z,91.90
2023-04-02T07:16:52.997Z,91.94
2023-04-02T07:20:03.444Z,91.99
2023-04-02T07:23:09.704Z,92.43
2023-04-02T07:26:15.462Z,92.97
2023-04-02T07:29:20.481Z,92.77
2023-04-02T07:32:19.699Z,92.47
2023-04-02T07:35:10.543Z,92.77
2023-04-02T07:38:01.136Z,92.24
2023-04-02T07:40:51.726Z,91.91
2023-04-02T07:44:11.531Z,91.97
2023-04-02T07:47:29.930Z,91.87
2023-04-02T07:50:37.989Z,91.45
2023-04-02T07:53:37.309Z,91.32
2023-04-02T07:56:39.487Z,91.72
2023-04-02T07:59:40.858Z,91.05
2023-04-02T08:02:39.508Z,90.97
2023-04-02T08:05:32.363Z,90.99
2023-04-02T08:08:36.665Z,91.00
2023-04-02T08:11:34.328Z,91.21
2023-04-02T08:14:40.453Z,90.84
2023-04-02T08:17:31.656Z,90.66
2023-04-02T08:20:37.262Z,90.34
2023-04-02T08:23:30.664Z,89.85
2023-04-02T08:26:31.260Z,89.09
2023-04-02T08:29:33.640Z,89.08
2023-04-02T08:32:32.875Z,89.01
2023-04-02T08:35:27.358Z,88.29
2023-04-02T08:38:22.498Z,87.70
2023-04-02T08:41:18.478Z,87.24
2023-04-02T08:44:18.781Z,85.96
2023-04-02T08:47:09.921Z,85.54
2023-04-02T08:50:04.186Z,84.57
2023-04-02T08:52:56.740Z,83.66
2023-04-02T08:55:50.709Z,82.17
2023-04-02T08:58:43.106Z,80.55
2023-04-02T09:01:40.079Z,80.21
2023-04-02T09:04:41.294Z,80.17
2023-04-02T09:07:35.408Z,79.64
2023-04-02T09:10:35.881Z,78.73
2023-04-02T09:13:29.326Z,78.09
2023-04-02T09:16:25.633Z,78.14
2023-04-02T09:19:18.367Z,77.29
2023-04-02T09:22:10.328Z,76.82
2023-04-02T09:25:01.545Z,76.92
2023-04-02T09:27:53.720Z,77.50
2023-04-02T09:30:48.349Z,77.20
2023-04-02T09:33:54.822Z,77.17
2023-04-02T09:36:48.141Z,77.04
2023-04-02T09:39:41.229Z,76.78
2023-04-02T09:42:35.232Z,76.27
2023-04-02T09:45:28.767Z,73.35
2023-04-02T09:48:26.789Z,72.29
2023-04-02T09:51:20.333Z,71.72
2023-04-02T09:54:15.487Z,71.98
2023-04-02T09:57:06.645Z,72.25
2023-04-02T10:00:21.845Z,72.77
2023-04-02T10:03:26.947Z,72.80
2023-04-02T10:06:17.383Z,73.23
2023-04-02T10:09:32.615Z,73.17
2023-04-02T10:12:26.086Z,73.36
2023-04-02T10:15:19.299Z,73.30
2023-04-02T10:18:14.477Z,73.02
2023-04-02T10:21:05.792Z,72.15
2023-04-02T10:23:58.524Z,72.04
2023-04-02T10:26:55.194Z,72.46
2023-04-02T10:30:02.800Z,72.53
2023-04-02T10:32:57.751Z,72.78
2023-04-02T10:35:54.279Z,72.59
2023-04-02T10:38:48.445Z,72.60
2023-04-02T10:41:42.391Z,72.06
2023-04-02T10:44:47.206Z,71.78
2023-04-02T10:47:41.722Z,72.20
2023-04-02T10:50:40.254Z,72.60
2023-04-02T10:53:35.065Z,72.07
2023-04-02T10:56:29.827Z,71.03
2023-04-02T10:59:26.378Z,70.68
2023-04-02T11:02:32.121Z,70.45
2023-04-02T11:05:29.436Z,70.33
2023-04-02T11:08:25.878Z,70.36
2023-04-02T11:11:20.068Z,70.10
2023-04-02T11:14:14.441Z,70.36
2023-04-02T11:17:05.321Z,70.70
2023-04-02T11:19:56.274Z,71.16
2023-04-02T11:22:47.625Z,71.43
2023-04-02T11:25:38.044Z,71.42
2023-04-02T11:28:31.034Z,71.73
2023-04-02T11:31:22.974Z,72.17
2023-04-02T11:34:38.910Z,72.46
2023-04-02T11:37:34.197Z,72.82
2023-04-02T11:40:45.000Z,72.95
2023-04-02T11:43:52.303Z,72.29
2023-04-02T11:46:45.626Z,72.01
2023-04-02T11:49:36.629Z,71.49
2023-04-02T11:52:29.046Z,69.97
2023-04-02T11:55:33.222Z,68.20
2023-04-02T11:58:49.216Z,66.15
2023-04-02T12:01:50.533Z,63.49
2023-04-02T12:05:04.545Z,60.47
2023-04-02T12:08:11.367Z,57.75
2023-04-02T12:11:02.659Z,55.46
2023-04-02T12:13:53.856Z,52.89
2023-04-02T12:16:44.022Z,52.46
2023-04-02T12:19:34.465Z,50.76
2023-04-02T12:22:25.710Z,49.22
2023-04-02T12:25:24.639Z,50.19
2023-04-02T12:28:19.992Z,49.81
2023-04-02T12:31:17.844Z,49.11
2023-04-02T12:34:15.430Z,50.16
2023-04-02T12:37:07.210Z,50.90
2023-04-02T12:39:58.655Z,50.81
2023-04-02T12:42:48.726Z,50.56
2023-04-02T12:45:39.966Z,49.85
2023-04-02T12:48:31.385Z,49.72
2023-04-02T12:51:25.767Z,51.05
2023-04-02T12:54:20.602Z,51.58
2023-04-02T12:57:24.642Z,51.95
2023-04-02T13:00:36.262Z,50.89
2023-04-02T13:03:29.192Z,47.82
2023-04-02T13:06:24.470Z,45.16
2023-04-02T13:09:29.621Z,44.93
2023-04-02T13:12:33.980Z,45.05
2023-04-02T13:15:26.651Z,42.68
2023-04-02T13:18:23.266Z,40.80
2023-04-02T13:21:28.506Z,39.07
2023-04-02T13:24:19.291Z,38.25
2023-04-02T13:27:12.767Z,37.83
2023-04-02T13:30:09.815Z,36.08
2023-04-02T13:33:00.155Z,34.69
2023-04-02T13:35:51.083Z,35.03
2023-04-02T13:38:41.346Z,33.29
2023-04-02T13:41:32.745Z,31.89
2023-04-02T13:44:26.103Z,32.37
2023-04-02T13:47:17.214Z,31.98
2023-04-02T13:50:17.090Z,31.76
2023-04-02T13:53:14.657Z,30.38
2023-04-02T13:56:08.627Z,31.67
2023-04-02T13:58:59.286Z,31.68
2023-04-02T14:01:51.067Z,31.86
2023-04-02T14:04:44.539Z,31.71
2023-04-02T14:07:50.965Z,31.87
2023-04-02T14:10:56.306Z,32.31
2023-04-02T14:14:04.364Z,32.94
2023-04-02T14:17:00.906Z,33.41
2023-04-02T14:20:08.762Z,32.81
2023-04-02T14:23:07.047Z,33.12
2023-04-02T14:26:02.438Z,33.26
2023-04-02T14:28:57.867Z,33.32
2023-04-02T14:31:50.082Z,33.99
2023-04-02T14:34:47.350Z,34.97
2023-04-02T14:37:41.331Z,35.55
2023-04-02T14:40:38.349Z,35.99
2023-04-02T14:43:32.086Z,36.83
2023-04-02T14:46:26.044Z,37.38
2023-04-02T14:49:23.112Z,37.48
2023-04-02T14:52:15.141Z,37.86
2023-04-02T14:55:11.785Z,38.78
2023-04-02T14:58:06.634Z,39.05
2023-04-02T15:01:03.959Z,39.25
2023-04-02T15:03:57.802Z,40.33
2023-04-02T15:06:50.475Z,40.63
2023-04-02T15:09:43.636Z,40.69
2023-04-02T15:12:37.506Z,41.33
2023-04-02T15:15:40.306Z,41.97
2023-04-02T15:18:31.334Z,42.09
2023-04-02T15:21:49.818Z,42.60
2023-04-02T15:24:51.035Z,43.13
2023-04-02T15:27:55.713Z,43.73
2023-04-02T15:30:46.610Z,44.23
2023-04-02T15:33:59.504Z,44.49
2023-04-02T15:37:06.246Z,45.01
2023-04-02T15:40:04.744Z,45.71
2023-04-02T15:43:00.049Z,45.75
2023-04-02T15:45:53.084Z,46.33
2023-04-02T15:49:09.157Z,46.83
2023-04-02T15:52:06.858Z,46.84
2023-04-02T15:55:12.409Z,47.11
2023-04-02T15:58:22.087Z,47.10
2023-04-02T16:01:22.346Z,47.04
2023-04-02T16:04:29.266Z,47.57
2023-04-02T16:07:25.553Z,47.92
2023-04-02T16:10:30.219Z,48.21
2023-04-02T16:13:28.294Z,48.55
2023-04-02T16:16:20.858Z,48.80
2023-04-02T16:19:18.729Z,48.92
2023-04-02T16:22:13.387Z,49.28
2023-04-02T16:25:16.067Z,49.87
2023-04-02T16:28:15.268Z,49.99
2023-04-02T16:31:12.103Z,49.93
2023-04-02T16:34:08.009Z,49.77
2023-04-02T16:37:01.656Z,49.85
2023-04-02T16:39:54.469Z,50.10
2023-04-02T16:42:54.553Z,50.00
2023-04-02T16:45:50.462Z,50.46
2023-04-02T16:48:45.762Z,50.53
2023-04-02T16:51:39.706Z,50.46
2023-04-02T16:54:32.538Z,50.91
2023-04-02T16:57:40.901Z,51.55
2023-04-02T17:00:37.247Z,52.09
2023-04-02T17:03:37.659Z,52.42
2023-04-02T17:06:33.852Z,52.99
2023-04-02T17:09:34.714Z,53.46
2023-04-02T17:12:38.512Z,54.00
2023-04-02T17:15:34.897Z,54.24
2023-04-02T17:18:26.740Z,54.55
2023-04-02T17:21:26.361Z,54.99
2023-04-02T17:24:42.085Z,55.60
2023-04-02T17:27:34.383Z,56.26
2023-04-02T17:30:30.775Z,56.52
2023-04-02T17:33:32.315Z,56.91
2023-04-02T17:36:44.915Z,57.29
2023-04-02T17:39:59.591Z,57.83
2023-04-02T17:43:02.830Z,58.51
2023-04-02T17:45:54.443Z,59.21
2023-04-02T17:48:47.363Z,59.67
2023-04-02T17:51:53.291Z,59.83
2023-04-02T17:55:03.554Z,60.21
2023-04-02T17:58:01.530Z,60.50
2023-04-02T18:01:13.944Z,60.87
2023-04-02T18:04:23.214Z,61.29
2023-04-02T18:07:22.523Z,61.51
2023-04-02T18:10:26.466Z,62.02
2023-04-02T18:13:34.803Z,62.37
2023-04-02T18:16:48.808Z,62.72
2023-04-02T18:19:55.510Z,62.65
2023-04-02T18:22:52.452Z,62.69
2023-04-02T18:25:55.333Z,63.10
2023-04-02T18:29:01.363Z,63.27
2023-04-02T18:32:05.988Z,63.68
2023-04-02T18:35:07.082Z,64.06
2023-04-02T18:38:02.853Z,64.41
2023-04-02T18:41:44.734Z,64.92
2023-04-02T18:44:52.071Z,65.48
2023-04-02T18:48:09.071Z,66.10
2023-04-02T18:51:15.194Z,66.71
2023-04-02T18:54:23.766Z,67.20
2023-04-02T18:57:29.982Z,67.67
2023-04-02T19:00:36.786Z,68.33
2023-04-02T19:03:50.367Z,68.76
2023-04-02T19:07:03.493Z,69.15
2023-04-02T19:09:58.373Z,69.62
2023-04-02T19:13:14.988Z,69.70
2023-04-02T19:16:22.834Z,70.07
2023-04-02T19:19:38.436Z,70.30
2023-04-02T19:22:36.045Z,70.59
2023-04-02T19:25:54.870Z,70.85
2023-04-02T19:28:52.918Z,70.98
2023-04-02T19:32:08.986Z,71.14
2023-04-02T19:35:22.006Z,71.28
2023-04-02T19:38:42.617Z,71.28
2023-04-02T19:41:54.295Z,71.53
2023-04-02T19:45:05.339Z,71.94
2023-04-02T19:48:13.528Z,72.30
2023-04-02T19:51:13.919Z,72.31
2023-04-02T19:54:07.425Z,72.47
2023-04-02T19:57:18.003Z,72.63
2023-04-02T20:00:15.086Z,72.83
2023-04-02T20:03:25.472Z,72.97
2023-04-02T20:06:36.071Z,73.15
2023-04-02T20:09:46.736Z,73.30
2023-04-02T20:12:50.686Z,73.33
2023-04-02T20:16:02.011Z,73.50
2023-04-02T20:19:12.405Z,73.51
2023-04-02T20:22:15.696Z,73.55
2023-04-02T20:25:18.812Z,73.70
2023-04-02T20:28:23.201Z,73.79
2023-04-02T20:31:33.726Z,73.86
2023-04-02T20:34:38.057Z,74.04
2023-04-02T20:37:29.555Z,74.20
2023-04-02T20:40:41.944Z,74.43
2023-04-02T20:43:34.910Z,74.63
2023-04-02T20:46:25.792Z,74.81
2023-04-02T20:49:36.218Z,74.89
2023-04-02T20:52:30.421Z,75.07
2023-04-02T20:55:21.801Z,75.28
2023-04-02T20:58:28.890Z,75.17
2023-04-02T21:01:27.611Z,75.29
2023-04-02T21:04:22.119Z,75.33
2023-04-02T21:07:15.022Z,75.45
2023-04-02T21:10:25.562Z,75.60
2023-04-02T21:13:31.967Z,75.79
2023-04-02T21:16:42.673Z,75.79
2023-04-02T21:19:51.438Z,75.95
2023-04-02T21:22:55.912Z,76.04
2023-04-02T21:25:58.179Z,76.24
2023-04-02T21:29:12.342Z,76.35
2023-04-02T21:32:11.121Z,76.40
2023-04-02T21:35:29.228Z,76.59
2023-04-02T21:38:34.814Z,76.61
2023-04-02T21:41:32.081Z,76.66
2023-04-02T21:44:33.050Z,76.58
2023-04-02T21:47:26.295Z,76.69
2023-04-02T21:50:25.972Z,76.74
2023-04-02T21:53:30.793Z,76.59
2023-04-02T21:56:23.201Z,76.52
2023-04-02T21:59:24.533Z,76.42
2023-04-02T22:02:35.100Z,76.28
2023-04-02T22:05:47.034Z,76.36
2023-04-02T22:08:39.825Z,76.50
2023-04-02T22:11:31.553Z,76.59
2023-04-02T22:14:35.154Z,76.49
2023-04-02T22:17:28.382Z,76.74
2023-04-02T22:20:21.934Z,76.90
2023-04-02T22:23:35.637Z,77.02
2023-04-02T22:26:27.592Z,77.11
2023-04-02T22:29:38.195Z,77.03
2023-04-02T22:32:29.058Z,77.11
2023-04-02T22:35:19.555Z,77.00
2023-04-02T22:38:10.322Z,77.01
2023-04-02T22:41:07.675Z,76.98
2023-04-02T22:43:58.245Z,77.12
2023-04-02T22:46:52.630Z,76.94
2023-04-02T22:50:04.072Z,76.92
2023-04-02T22:53:03.085Z,76.91
2023-04-02T22:55:53.975Z,76.83
2023-04-02T22:58:46.164Z,76.76
2023-04-02T23:01:47.678Z,76.72
2023-04-02T23:04:40.643Z,76.73
2023-04-02T23:07:30.960Z,76.67
2023-04-02T23:10:24.425Z,76.70
2023-04-02T23:13:58.170Z,76.73
2023-04-02T23:16:55.070Z,76.79
2023-04-02T23:19:59.242Z,76.79
2023-04-02T23:23:02.630Z,76.82
2023-04-02T23:26:14.123Z,76.69
2023-04-02T23:29:21.022Z,76.78
2023-04-02T23:32:25.112Z,76.78
2023-04-02T23:35:28.358Z,76.68
2023-04-02T23:38:22.002Z,76.74
2023-04-02T23:41:32.906Z,76.72
2023-04-02T23:44:43.345Z,76.77
2023-04-02T23:47:56.635Z,76.76
2023-04-02T23:51:03.873Z,76.65
2023-04-02T23:53:56.758Z,76.53
2023-04-02T23:57:07.189Z,76.55
